createdAt,value
2019-03-08T00:04:43.542Z,8.36
2019-03-08T00:07:11.940Z,8.36
2019-03-08T00:09:40.338Z,8.36
2019-03-08T00:12:29.910Z,8.37
2019-03-08T00:14:58.302Z,8.39
2019-03-08T00:17:26.693Z,8.43
2019-03-08T00:22:28.899Z,8.50
2019-03-08T00:24:57.305Z,8.51
2019-03-08T00:29:59.348Z,8.46
2019-03-08T00:32:27.761Z,8.44
2019-03-08T00:34:56.226Z,8.43
2019-03-08T00:37:24.627Z,8.40
2019-03-08T00:42:26.827Z,8.36
2019-03-08T00:44:55.226Z,8.33
2019-03-08T00:49:57.485Z,8.31
2019-03-08T00:54:59.863Z,8.28
2019-03-08T01:00:21.385Z,8.25
2019-03-08T01:03:29.735Z,8.24
2019-03-08T01:05:58.129Z,8.24
2019-03-08T01:08:45.840Z,8.24
2019-03-08T01:11:14.226Z,8.27
2019-03-08T01:13:42.625Z,8.29
2019-03-08T01:16:12.771Z,8.29
2019-03-08T01:18:41.166Z,8.26
2019-03-08T01:21:09.634Z,8.25
2019-03-08T01:26:11.507Z,8.20
2019-03-08T01:28:39.903Z,8.20
2019-03-08T01:31:48.260Z,8.21
2019-03-08T01:34:35.962Z,8.22
2019-03-08T01:37:23.703Z,8.21
2019-03-08T01:39:52.097Z,8.21
2019-03-08T01:42:20.497Z,8.19
2019-03-08T01:44:48.935Z,8.18
2019-03-08T01:47:17.327Z,8.16
2019-03-08T01:49:45.726Z,8.14
2019-03-08T01:54:47.893Z,8.07
2019-03-08T01:59:52.000Z,8.03
2019-03-08T02:02:20.394Z,8.04
2019-03-08T02:07:41.646Z,8.05
2019-03-08T02:10:50.305Z,8.04
2019-03-08T02:13:20.423Z,8.03
2019-03-08T02:15:48.829Z,7.99
2019-03-08T02:18:17.285Z,7.99
2019-03-08T02:20:45.695Z,7.97
2019-03-08T02:23:14.079Z,7.99
2019-03-08T02:28:16.783Z,7.98
2019-03-08T02:30:45.222Z,7.97
2019-03-08T02:33:13.615Z,7.97
2019-03-08T02:35:42.071Z,7.98
2019-03-08T02:40:44.637Z,7.96
2019-03-08T02:46:06.819Z,7.97
2019-03-08T02:48:35.235Z,7.96
2019-03-08T02:51:03.641Z,7.94
2019-03-08T02:53:32.028Z,7.94
2019-03-08T02:56:00.452Z,7.92
2019-03-08T02:58:28.847Z,7.91
2019-03-08T03:00:57.239Z,7.91
2019-03-08T03:03:25.700Z,7.92
2019-03-08T03:05:54.091Z,7.91
2019-03-08T03:08:22.499Z,7.88
2019-03-08T03:13:24.827Z,7.91
2019-03-08T03:18:27.119Z,7.89
2019-03-08T03:23:29.554Z,7.86
2019-03-08T03:25:57.986Z,7.83
2019-03-08T03:28:45.627Z,7.83
2019-03-08T03:31:14.099Z,7.80
2019-03-08T03:33:42.489Z,7.76
2019-03-08T03:36:10.883Z,7.75
2019-03-08T03:38:39.325Z,7.74
2019-03-08T03:41:07.701Z,7.72
2019-03-08T03:43:36.093Z,7.72
2019-03-08T03:48:38.896Z,7.71
2019-03-08T03:51:07.326Z,7.72
2019-03-08T03:53:35.719Z,7.71
2019-03-08T03:56:25.236Z,7.72
2019-03-08T03:58:53.634Z,7.73
2019-03-08T04:04:30.446Z,7.71
2019-03-08T04:06:58.843Z,7.71
2019-03-08T04:09:27.239Z,7.71
2019-03-08T04:14:29.722Z,7.64
2019-03-08T04:19:32.363Z,7.57
2019-03-08T04:24:35.181Z,7.46
2019-03-08T04:29:37.664Z,7.37
2019-03-08T04:32:06.055Z,7.33
2019-03-08T04:34:34.489Z,7.29
2019-03-08T04:37:02.883Z,7.28
2019-03-08T04:39:33.003Z,7.25
2019-03-08T04:44:35.785Z,7.17
2019-03-08T04:47:23.514Z,7.13
2019-03-08T04:49:51.907Z,7.12
2019-03-08T04:52:39.453Z,7.12
2019-03-08T04:55:47.769Z,7.14
2019-03-08T05:00:50.182Z,7.13
2019-03-08T05:03:18.609Z,7.11
2019-03-08T05:05:48.720Z,7.08
2019-03-08T05:08:17.116Z,7.09
2019-03-08T05:10:45.569Z,7.09
2019-03-08T05:13:33.285Z,7.10
2019-03-08T05:16:01.722Z,7.09
2019-03-08T05:18:30.119Z,7.07
2019-03-08T05:20:58.521Z,7.10
2019-03-08T05:26:01.055Z,7.06
2019-03-08T05:28:29.487Z,7.11
2019-03-08T05:30:59.606Z,7.12
2019-03-08T05:33:28.000Z,7.13
2019-03-08T05:35:56.419Z,7.12
2019-03-08T05:38:24.805Z,7.13
2019-03-08T05:40:53.217Z,7.16
2019-03-08T05:43:21.641Z,7.17
2019-03-08T05:45:51.757Z,7.17
2019-03-08T05:48:20.146Z,7.17
2019-03-08T05:50:48.564Z,7.18
2019-03-08T05:53:16.954Z,7.17
2019-03-08T05:55:45.418Z,7.15
2019-03-08T06:00:48.214Z,7.08
2019-03-08T06:03:16.646Z,7.09
2019-03-08T06:05:45.042Z,7.14
2019-03-08T06:08:13.479Z,7.17
2019-03-08T06:10:41.895Z,7.17
2019-03-08T06:13:10.286Z,7.14
2019-03-08T06:15:40.471Z,7.12
2019-03-08T06:18:08.890Z,7.12
2019-03-08T06:20:37.295Z,7.14
2019-03-08T06:23:05.677Z,7.19
2019-03-08T06:28:08.500Z,7.24
2019-03-08T06:30:38.640Z,7.25
2019-03-08T06:33:07.040Z,7.24
2019-03-08T06:35:35.490Z,7.25
2019-03-08T06:43:33.166Z,7.29
2019-03-08T06:46:20.854Z,7.33
2019-03-08T06:48:49.258Z,7.36
2019-03-08T06:51:17.672Z,7.38
2019-03-08T06:54:05.362Z,7.40
2019-03-08T06:56:52.996Z,7.43
2019-03-08T06:59:40.541Z,7.47
2019-03-08T07:02:22.035Z,7.53
2019-03-08T07:04:50.455Z,7.59
2019-03-08T07:07:18.848Z,7.64
2019-03-08T07:09:47.242Z,7.66
2019-03-08T07:14:50.041Z,7.73
2019-03-08T07:22:47.310Z,7.75
2019-03-08T07:30:59.237Z,7.92
2019-03-08T07:33:53.202Z,8.11
2019-03-08T07:36:36.101Z,8.32
2019-03-08T07:39:44.434Z,8.49
2019-03-08T07:42:32.002Z,8.68
2019-03-08T07:48:08.694Z,9.06
2019-03-08T07:59:03.328Z,9.50
2019-03-08T08:02:11.655Z,9.55
2019-03-08T08:04:59.189Z,9.69
2019-03-08T08:07:46.717Z,9.88
2019-03-08T08:13:09.848Z,10.32
2019-03-08T08:15:57.399Z,10.52
2019-03-08T08:19:05.808Z,10.72
2019-03-08T08:21:55.050Z,10.88
2019-03-08T08:24:42.607Z,10.83
2019-03-08T08:27:30.246Z,10.78
2019-03-08T08:30:17.786Z,10.69
2019-03-08T08:33:05.311Z,10.61
2019-03-08T08:38:28.063Z,10.47
2019-03-08T08:41:15.762Z,10.41
2019-03-08T08:44:03.308Z,10.33
2019-03-08T08:46:50.819Z,10.27
2019-03-08T08:52:17.443Z,10.19
2019-03-08T08:57:54.145Z,10.25
2019-03-08T09:00:41.936Z,10.30
2019-03-08T09:03:29.494Z,10.32
2019-03-08T09:06:12.210Z,10.35
2019-03-08T09:08:59.769Z,10.36
2019-03-08T09:14:36.400Z,10.40
2019-03-08T09:17:23.926Z,10.47
2019-03-08T09:20:11.480Z,10.50
2019-03-08T09:22:59.003Z,10.51
2019-03-08T09:25:46.573Z,10.51
2019-03-08T09:28:34.074Z,10.57
2019-03-08T09:39:14.916Z,10.69
2019-03-08T09:42:02.441Z,10.95
2019-03-08T09:47:28.999Z,11.37
2019-03-08T09:53:05.705Z,11.30
2019-03-08T09:58:42.411Z,11.17
2019-03-08T10:01:29.953Z,11.25
2019-03-08T10:04:17.602Z,11.24
2019-03-08T10:07:05.157Z,11.19
2019-03-08T10:12:29.340Z,11.16
2019-03-08T10:15:17.380Z,11.14
2019-03-08T10:18:04.933Z,11.16
2019-03-08T10:20:52.468Z,11.21
2019-03-08T10:23:40.114Z,11.32
2019-03-08T10:26:27.639Z,11.31
2019-03-08T10:29:15.291Z,11.27
2019-03-08T10:32:02.814Z,11.31
2019-03-08T10:34:50.364Z,11.33
2019-03-08T10:37:37.962Z,11.35
2019-03-08T10:40:46.746Z,11.31
2019-03-08T10:54:35.937Z,11.56
2019-03-08T10:57:23.518Z,11.54
2019-03-08T11:00:31.916Z,11.49
2019-03-08T11:03:19.438Z,11.41
2019-03-08T11:08:46.022Z,11.12
2019-03-08T11:11:33.674Z,11.06
2019-03-08T11:16:56.877Z,11.20
2019-03-08T11:19:44.465Z,11.27
2019-03-08T11:25:49.032Z,11.39
2019-03-08T11:28:36.695Z,11.41
2019-03-08T11:31:43.573Z,11.32
2019-03-08T11:39:55.310Z,11.15
2019-03-08T11:42:42.838Z,11.13
2019-03-08T11:48:25.180Z,11.04
2019-03-08T11:51:12.698Z,11.06
2019-03-08T11:54:00.332Z,11.04
2019-03-08T11:56:55.855Z,10.95
2019-03-08T11:59:37.138Z,10.92
2019-03-08T12:02:45.536Z,10.86
2019-03-08T12:05:33.153Z,10.81
2019-03-08T12:11:30.556Z,10.74
2019-03-08T12:14:18.087Z,10.71
2019-03-08T12:19:40.869Z,10.75
2019-03-08T12:22:28.398Z,10.83
2019-03-08T12:25:16.024Z,10.82
2019-03-08T12:28:24.340Z,10.95
2019-03-08T12:33:47.306Z,11.21
2019-03-08T12:36:35.004Z,11.21
2019-03-08T12:42:17.209Z,11.19
2019-03-08T12:45:04.769Z,11.19
2019-03-08T12:47:52.384Z,11.26
2019-03-08T12:50:39.906Z,11.38
2019-03-08T12:53:27.462Z,11.33
2019-03-08T12:56:14.984Z,11.33
2019-03-08T12:59:02.546Z,11.32
2019-03-08T13:01:50.072Z,11.29
2019-03-08T13:04:37.637Z,11.29
2019-03-08T13:07:25.166Z,11.25
2019-03-08T13:09:53.617Z,11.22
2019-03-08T13:12:22.020Z,11.17
2019-03-08T13:14:50.405Z,11.17
2019-03-08T13:17:20.546Z,11.19
2019-03-08T13:19:48.974Z,11.23
2019-03-08T13:22:17.454Z,11.28
2019-03-08T13:24:45.885Z,11.28
2019-03-08T13:27:33.492Z,11.20
2019-03-08T13:32:35.484Z,10.94
2019-03-08T13:40:33.026Z,10.55
2019-03-08T13:45:54.715Z,10.48
2019-03-08T13:48:42.458Z,10.27
2019-03-08T13:51:30.262Z,10.16
2019-03-08T13:53:58.677Z,10.05
2019-03-08T13:56:27.065Z,9.94
2019-03-08T13:58:55.458Z,9.93
2019-03-08T14:03:57.855Z,9.83
2019-03-08T14:06:28.009Z,9.84
2019-03-08T14:08:56.400Z,9.81
2019-03-08T14:11:24.787Z,9.68
2019-03-08T14:13:53.220Z,9.57
2019-03-08T14:16:21.640Z,9.54
2019-03-08T14:18:50.007Z,9.43
2019-03-08T14:21:20.159Z,9.28
2019-03-08T14:23:48.552Z,9.17
2019-03-08T14:26:24.003Z,9.16
2019-03-08T14:28:52.419Z,9.09
2019-03-08T14:36:44.582Z,8.83
2019-03-08T14:39:14.455Z,8.72
2019-03-08T14:42:03.874Z,8.71
2019-03-08T14:44:51.585Z,8.73
2019-03-08T14:47:39.370Z,8.74
2019-03-08T14:50:47.836Z,8.77
2019-03-08T14:53:17.960Z,8.79
2019-03-08T14:55:46.352Z,8.91
2019-03-08T14:58:14.816Z,9.08
2019-03-08T15:00:43.208Z,9.23
2019-03-08T15:03:11.608Z,9.33
2019-03-08T15:05:40.105Z,9.35
2019-03-08T15:08:08.495Z,9.32
2019-03-08T15:10:39.718Z,9.20
2019-03-08T15:13:07.028Z,9.10
2019-03-08T15:15:35.491Z,9.05
2019-03-08T15:18:03.913Z,8.96
2019-03-08T15:20:34.051Z,8.86
2019-03-08T15:23:02.482Z,8.73
2019-03-08T15:25:31.485Z,8.69
2019-03-08T15:28:01.131Z,8.61
2019-03-08T15:30:29.519Z,8.61
2019-03-08T15:32:59.635Z,8.64
2019-03-08T15:36:07.993Z,8.63
2019-03-08T15:38:36.389Z,8.60
2019-03-08T15:41:25.004Z,8.58
2019-03-08T15:44:13.441Z,8.57
2019-03-08T15:47:01.055Z,8.60
2019-03-08T15:49:30.616Z,8.65
2019-03-08T15:51:59.906Z,8.66
2019-03-08T15:54:29.779Z,8.57
2019-03-08T15:56:58.172Z,8.51
2019-03-08T15:59:26.565Z,8.49
2019-03-08T16:04:29.320Z,8.52
2019-03-08T16:07:19.063Z,8.57
2019-03-08T16:09:47.098Z,8.61
2019-03-08T16:12:34.826Z,8.60
2019-03-08T16:23:43.636Z,8.68
2019-03-08T16:28:46.232Z,8.69
2019-03-08T16:31:33.544Z,8.67
2019-03-08T16:37:09.778Z,8.66
2019-03-08T16:39:57.125Z,8.67
2019-03-08T16:45:19.586Z,8.68
2019-03-08T16:48:06.875Z,8.69
2019-03-08T16:51:15.644Z,8.72
2019-03-08T16:54:02.916Z,8.74
2019-03-08T16:59:25.716Z,8.69
2019-03-08T17:07:37.935Z,8.58
2019-03-08T17:10:46.285Z,8.56
2019-03-08T17:16:28.653Z,8.53
2019-03-08T17:19:16.178Z,8.51
2019-03-08T17:22:03.907Z,8.48
2019-03-08T17:24:51.570Z,8.45
2019-03-08T17:27:39.975Z,8.43
2019-03-08T17:30:49.155Z,8.42
2019-03-08T17:33:36.942Z,8.40
2019-03-08T17:36:24.466Z,8.36
2019-03-08T17:42:10.394Z,8.31
2019-03-08T17:44:57.911Z,8.29
2019-03-08T17:50:45.223Z,8.24
2019-03-08T17:59:00.545Z,8.19
2019-03-08T18:04:56.291Z,8.20
2019-03-08T18:07:43.817Z,8.16
2019-03-08T18:10:31.451Z,8.11
2019-03-08T18:18:46.722Z,8.05
2019-03-08T18:21:34.243Z,8.02
2019-03-08T18:24:23.904Z,8.00
2019-03-08T18:27:11.309Z,7.99
2019-03-08T18:29:58.866Z,7.96
2019-03-08T18:32:46.388Z,7.94
2019-03-08T18:35:33.947Z,7.92
2019-03-08T18:38:21.468Z,7.95
2019-03-08T18:43:48.202Z,7.91
2019-03-08T18:46:35.726Z,7.86
2019-03-08T18:49:23.342Z,7.79
2019-03-08T18:54:59.970Z,7.69
2019-03-08T19:00:57.486Z,7.61
2019-03-08T19:03:45.003Z,7.58
2019-03-08T19:06:32.880Z,7.55
2019-03-08T19:09:20.410Z,7.55
2019-03-08T19:14:43.219Z,7.60
2019-03-08T19:17:30.752Z,7.63
2019-03-08T19:20:37.728Z,7.62
2019-03-08T19:26:14.412Z,7.61
2019-03-08T19:29:01.933Z,7.63
2019-03-08T19:31:49.727Z,7.63
2019-03-08T19:37:26.421Z,7.56
2019-03-08T19:40:13.943Z,7.51
2019-03-08T19:43:01.563Z,7.45
2019-03-08T19:48:39.978Z,7.38
2019-03-08T19:59:31.293Z,7.14
2019-03-08T20:02:18.818Z,7.10
2019-03-08T20:07:42.249Z,7.06
2019-03-08T20:10:50.566Z,7.02
2019-03-08T20:16:13.674Z,6.87
2019-03-08T20:21:50.368Z,6.92
2019-03-08T20:24:37.892Z,6.97
2019-03-08T20:27:44.683Z,6.94
2019-03-08T20:30:51.538Z,6.93
2019-03-08T20:33:39.113Z,6.92
2019-03-08T20:36:45.959Z,6.88
2019-03-08T20:39:33.540Z,6.88
2019-03-08T20:45:10.330Z,6.83
2019-03-08T20:47:38.724Z,6.87
2019-03-08T20:50:47.157Z,6.86
2019-03-08T20:53:15.557Z,6.81
2019-03-08T20:55:45.674Z,6.76
2019-03-08T21:01:07.772Z,6.69
2019-03-08T21:06:29.393Z,6.60
2019-03-08T21:08:57.813Z,6.58
2019-03-08T21:11:26.215Z,6.55
2019-03-08T21:13:56.329Z,6.55
2019-03-08T21:16:24.750Z,6.54
2019-03-08T21:18:53.148Z,6.53
2019-03-08T21:21:21.549Z,6.52
2019-03-08T21:23:49.956Z,6.49
2019-03-08T21:26:18.366Z,6.49
2019-03-08T21:28:46.763Z,6.52
2019-03-08T21:31:15.211Z,6.53
2019-03-08T21:33:43.607Z,6.53
2019-03-08T21:36:12.003Z,6.52
2019-03-08T21:38:40.434Z,6.49
2019-03-08T21:41:10.559Z,6.47
2019-03-08T21:43:38.956Z,6.46
2019-03-08T21:48:40.925Z,6.46
2019-03-08T21:51:09.323Z,6.44
2019-03-08T21:56:13.730Z,6.39
2019-03-08T22:01:15.631Z,6.40
2019-03-08T22:06:19.741Z,6.39
2019-03-08T22:16:46.568Z,6.35
2019-03-08T22:21:49.422Z,6.30
2019-03-08T22:24:31.391Z,6.28
2019-03-08T22:26:59.800Z,6.25
2019-03-08T22:29:28.191Z,6.22
2019-03-08T22:31:56.620Z,6.20
2019-03-08T22:34:25.021Z,6.18
2019-03-08T22:36:53.402Z,6.17
2019-03-08T22:41:56.189Z,6.17
2019-03-08T22:46:58.992Z,6.14
2019-03-08T22:49:27.434Z,6.13
2019-03-08T22:51:55.825Z,6.11
2019-03-08T22:54:24.221Z,6.09
2019-03-08T22:59:26.096Z,6.05
2019-03-08T23:02:34.468Z,6.02
2019-03-08T23:05:02.862Z,6.03
2019-03-08T23:07:31.259Z,6.02
2019-03-08T23:09:59.687Z,6.04
2019-03-08T23:12:28.078Z,6.05
2019-03-08T23:14:56.486Z,6.05
2019-03-08T23:17:25.052Z,6.05
2019-03-08T23:19:53.445Z,6.03
2019-03-08T23:22:21.861Z,6.00
2019-03-08T23:32:57.561Z,5.92
2019-03-08T23:35:25.956Z,5.84
2019-03-08T23:37:56.103Z,5.81
2019-03-08T23:42:59.104Z,5.80
2019-03-08T23:45:27.535Z,5.80
2019-03-08T23:47:55.923Z,5.78
2019-03-08T23:50:24.401Z,5.78
2019-03-08T23:55:26.535Z,5.77
2019-03-08T23:57:54.934Z,5.78
